createdAt,value
2023-05-09T00:02:06.385Z,99003.97
2023-05-09T00:07:08.188Z,98998.28
2023-05-09T00:12:10.079Z,98999.53
2023-05-09T00:17:14.608Z,98997.22
2023-05-09T00:22:17.925Z,98993.28
2023-05-09T00:27:19.774Z,98991.28
2023-05-09T00:32:21.738Z,98988.31
2023-05-09T00:37:24.198Z,98986.47
2023-05-09T00:42:26.490Z,98977.78
2023-05-09T00:47:29.019Z,98969.91
2023-05-09T00:52:34.025Z,98969.53
2023-05-09T00:57:36.548Z,98957.81
2023-05-09T01:02:53.395Z,98958.25
2023-05-09T01:08:07.662Z,98961.28
2023-05-09T01:13:32.794Z,98951.91
2023-05-09T01:18:40.764Z,98944.66
2023-05-09T01:23:45.553Z,98951.84
2023-05-09T01:29:08.709Z,98943.69
2023-05-09T01:34:15.148Z,98926.47
2023-05-09T01:39:18.726Z,98934.41
2023-05-09T01:44:22.677Z,98924.47
2023-05-09T01:49:26.353Z,98928.63
2023-05-09T01:54:29.334Z,98935.38
2023-05-09T01:59:33.407Z,98929.81
2023-05-09T02:04:36.352Z,98923.28
2023-05-09T02:09:38.532Z,98912.91
2023-05-09T02:14:40.480Z,98902.66
2023-05-09T02:19:43.327Z,98918.00
2023-05-09T02:24:45.592Z,98908.00
2023-05-09T02:29:55.424Z,98910.09
2023-05-09T02:34:59.081Z,98898.59
2023-05-09T02:40:05.645Z,98900.66
2023-05-09T02:45:09.218Z,98897.97
2023-05-09T02:50:11.629Z,98900.72
2023-05-09T02:55:14.500Z,98903.59
2023-05-09T03:00:18.783Z,98905.75
2023-05-09T03:05:20.948Z,98907.38
2023-05-09T03:10:23.190Z,98905.19
2023-05-09T03:15:25.134Z,98906.66
2023-05-09T03:20:27.722Z,98895.47
2023-05-09T03:25:29.982Z,98900.00
2023-05-09T03:30:31.958Z,98897.53
2023-05-09T03:35:34.506Z,98890.44
2023-05-09T03:40:37.828Z,98883.91
2023-05-09T03:45:44.126Z,98877.81
2023-05-09T03:50:48.458Z,98886.00
2023-05-09T03:55:52.106Z,98875.66
2023-05-09T04:00:55.091Z,98878.75
2023-05-09T04:06:00.150Z,98870.41
2023-05-09T04:11:08.452Z,98875.97
2023-05-09T04:16:12.669Z,98868.88
2023-05-09T04:21:14.541Z,98867.78
2023-05-09T04:26:18.415Z,98867.22
2023-05-09T04:31:23.917Z,98865.00
2023-05-09T04:36:30.071Z,98868.94
2023-05-09T04:41:33.400Z,98868.66
2023-05-09T04:46:35.454Z,98858.81
2023-05-09T04:51:38.228Z,98864.34
2023-05-09T04:56:40.286Z,98858.72
2023-05-09T05:01:42.273Z,98855.53
2023-05-09T05:06:44.279Z,98845.06
2023-05-09T05:11:58.422Z,98845.66
2023-05-09T05:17:03.621Z,98848.47
2023-05-09T05:22:06.618Z,98836.84
2023-05-09T05:27:11.164Z,98838.84
2023-05-09T05:32:13.125Z,98840.38
2023-05-09T05:37:15.381Z,98838.66
2023-05-09T05:42:18.425Z,98834.47
2023-05-09T05:47:23.654Z,98831.47
2023-05-09T05:52:29.932Z,98836.41
2023-05-09T05:57:35.388Z,98827.03
2023-05-09T06:02:37.823Z,98820.88
2023-05-09T06:07:41.665Z,98806.28
2023-05-09T06:12:44.132Z,98812.03
2023-05-09T06:17:46.409Z,98799.59
2023-05-09T06:22:48.363Z,98808.13
2023-05-09T06:27:50.126Z,98807.66
2023-05-09T06:32:52.352Z,98796.00
2023-05-09T06:37:54.612Z,98788.84
2023-05-09T06:42:56.669Z,98787.91
2023-05-09T06:47:58.617Z,98778.47
2023-05-09T06:53:00.582Z,98778.31
2023-05-09T06:58:03.555Z,98770.16
2023-05-09T07:03:07.774Z,98765.09
2023-05-09T07:08:10.001Z,98755.81
2023-05-09T07:13:13.515Z,98747.03
2023-05-09T07:18:15.501Z,98737.41
2023-05-09T07:23:17.400Z,98747.16
2023-05-09T07:28:19.559Z,98745.34
2023-05-09T07:33:22.923Z,98734.34
2023-05-09T07:38:24.826Z,98737.22
2023-05-09T07:43:27.970Z,98731.34
2023-05-09T07:48:29.852Z,98724.78
2023-05-09T07:53:31.930Z,98711.06
2023-05-09T07:58:33.875Z,98701.00
2023-05-09T08:03:36.107Z,98696.25
2023-05-09T08:08:39.049Z,98703.63
2023-05-09T08:13:40.990Z,98698.31
2023-05-09T08:18:46.870Z,98692.03
2023-05-09T08:23:48.701Z,98690.16
2023-05-09T08:28:51.809Z,98685.41
2023-05-09T08:33:54.694Z,98672.97
2023-05-09T08:38:56.526Z,98659.72
2023-05-09T08:43:58.427Z,98654.94
2023-05-09T08:49:01.209Z,98654.03
2023-05-09T08:54:03.584Z,98651.13
2023-05-09T08:59:05.932Z,98638.22
2023-05-09T09:04:09.177Z,98639.84
2023-05-09T09:09:13.063Z,98642.84
2023-05-09T09:14:29.607Z,98635.75
2023-05-09T09:19:34.245Z,98635.75
2023-05-09T09:24:37.145Z,98638.69
2023-05-09T09:35:08.481Z,98642.56
2023-05-09T09:40:12.396Z,98642.56
2023-05-09T09:45:17.319Z,98637.41
2023-05-09T09:50:23.398Z,98624.66
2023-05-09T09:55:25.352Z,98627.00
2023-05-09T10:00:28.738Z,98619.81
2023-05-09T10:05:31.435Z,98621.09
2023-05-09T10:10:35.490Z,98623.03
2023-05-09T10:15:52.140Z,98619.63
2023-05-09T10:20:57.315Z,98605.53
2023-05-09T10:26:21.540Z,98603.19
2023-05-09T10:31:29.772Z,98599.81
2023-05-09T10:36:32.674Z,98581.72
2023-05-09T10:41:37.087Z,98578.50
2023-05-09T10:46:39.371Z,98571.66
2023-05-09T10:51:42.391Z,98565.81
2023-05-09T10:56:44.586Z,98549.69
2023-05-09T11:01:46.614Z,98540.00
2023-05-09T11:06:50.997Z,98543.66
2023-05-09T11:11:56.533Z,98526.50
2023-05-09T11:17:04.379Z,98523.50
2023-05-09T11:22:28.033Z,98515.22
2023-05-09T11:27:52.173Z,98503.53
2023-05-09T11:32:55.856Z,98488.81
2023-05-09T11:38:05.908Z,98480.94
2023-05-09T11:43:08.158Z,98474.50
2023-05-09T11:48:10.780Z,98467.22
2023-05-09T11:53:13.096Z,98459.75
2023-05-09T11:58:20.085Z,98448.25
2023-05-09T12:03:22.080Z,98448.25
2023-05-09T12:08:28.492Z,98436.75
2023-05-09T12:13:30.427Z,98428.88
2023-05-09T12:18:32.278Z,98426.44
2023-05-09T12:23:36.159Z,98419.16
2023-05-09T12:28:38.515Z,98413.91
2023-05-09T12:33:40.742Z,98412.72
2023-05-09T12:38:53.177Z,98409.66
2023-05-09T12:43:55.595Z,98407.44
2023-05-09T12:48:58.573Z,98401.19
2023-05-09T12:54:04.742Z,98389.66
2023-05-09T12:59:11.228Z,98394.91
2023-05-09T13:04:14.372Z,98385.63
2023-05-09T13:09:16.449Z,98367.63
2023-05-09T13:14:21.995Z,98362.34
2023-05-09T13:19:24.912Z,98355.06
2023-05-09T13:24:26.829Z,98344.97
2023-05-09T13:29:28.607Z,98337.25
2023-05-09T13:34:31.869Z,98326.72
2023-05-09T13:39:35.416Z,98318.81
2023-05-09T13:44:37.248Z,98308.47
2023-05-09T13:49:39.205Z,98303.03
2023-05-09T13:54:41.129Z,98296.97
2023-05-09T13:59:43.427Z,98287.22
2023-05-09T14:04:45.243Z,98267.00
2023-05-09T14:09:49.080Z,98264.97
2023-05-09T14:14:54.348Z,98258.31
2023-05-09T14:20:00.486Z,98246.38
2023-05-09T14:25:02.617Z,98248.94
2023-05-09T14:30:05.783Z,98247.50
2023-05-09T14:35:08.055Z,98247.09
2023-05-09T14:40:10.245Z,98232.50
2023-05-09T14:45:13.054Z,98226.25
2023-05-09T14:50:16.802Z,98219.53
2023-05-09T14:55:19.747Z,98211.66
2023-05-09T15:00:22.560Z,98205.59
2023-05-09T15:05:25.286Z,98197.34
2023-05-09T15:10:27.938Z,98204.63
2023-05-09T15:15:29.882Z,98206.88
2023-05-09T15:20:32.084Z,98197.34
2023-05-09T15:25:34.284Z,98197.75
2023-05-09T15:30:38.299Z,98187.66
2023-05-09T15:35:44.338Z,98181.28
2023-05-09T15:40:46.281Z,98184.38
2023-05-09T15:45:48.415Z,98169.47
2023-05-09T15:50:53.222Z,98172.91
2023-05-09T15:55:57.321Z,98162.41
2023-05-09T16:00:59.195Z,98153.94
2023-05-09T16:06:02.016Z,98153.94
2023-05-09T16:11:05.233Z,98149.09
2023-05-09T16:16:07.333Z,98142.28
2023-05-09T16:21:09.530Z,98133.88
2023-05-09T16:26:11.890Z,98130.28
2023-05-09T16:31:13.880Z,98130.13
2023-05-09T16:36:15.728Z,98123.47
2023-05-09T16:41:17.520Z,98108.94
2023-05-09T16:46:19.809Z,98116.22
2023-05-09T16:51:21.865Z,98109.78
2023-05-09T16:56:23.896Z,98101.75
2023-05-09T17:01:25.891Z,98090.28
2023-05-09T17:06:28.272Z,98093.53
2023-05-09T17:11:30.408Z,98090.97
2023-05-09T17:16:32.280Z,98085.53
2023-05-09T17:21:34.311Z,98085.56
2023-05-09T17:26:36.187Z,98079.13
2023-05-09T17:31:39.099Z,98075.75
2023-05-09T17:36:43.509Z,98077.38
2023-05-09T17:41:45.651Z,98066.72
2023-05-09T17:46:48.324Z,98067.34
2023-05-09T17:51:53.197Z,98061.34
2023-05-09T17:57:01.430Z,98060.34
2023-05-09T18:02:03.218Z,98056.16
2023-05-09T18:07:05.180Z,98051.75
2023-05-09T18:12:07.350Z,98049.38
2023-05-09T18:17:09.283Z,98045.97
2023-05-09T18:22:11.286Z,98037.13
2023-05-09T18:27:13.206Z,98043.59
2023-05-09T18:32:15.054Z,98035.16
2023-05-09T18:37:18.960Z,98043.41
2023-05-09T18:42:20.917Z,98045.25
2023-05-09T18:47:24.468Z,98046.47
2023-05-09T18:52:26.627Z,98041.25
2023-05-09T18:57:28.534Z,98040.25
2023-05-09T19:02:30.588Z,98035.22
2023-05-09T19:07:32.699Z,98028.19
2023-05-09T19:12:37.493Z,98022.38
2023-05-09T19:17:39.591Z,98018.53
2023-05-09T19:22:45.692Z,98008.09
2023-05-09T19:27:48.000Z,98019.34
2023-05-09T19:32:50.103Z,98019.97
2023-05-09T19:37:52.153Z,98014.13
2023-05-09T19:42:54.008Z,98009.69
2023-05-09T19:47:55.993Z,98009.69
2023-05-09T19:52:58.270Z,98010.31
2023-05-09T19:58:00.054Z,98008.50
2023-05-09T20:03:04.100Z,98007.69
2023-05-09T20:08:06.236Z,98007.66
2023-05-09T20:13:08.101Z,97999.63
2023-05-09T20:18:10.146Z,97997.59
2023-05-09T20:23:12.465Z,97986.72
2023-05-09T20:28:20.147Z,97975.88
2023-05-09T20:33:23.160Z,97973.84
2023-05-09T20:38:25.007Z,97970.84
2023-05-09T20:43:26.935Z,97961.19
2023-05-09T20:48:29.491Z,97956.16
2023-05-09T20:53:32.622Z,97951.94
2023-05-09T20:58:34.785Z,97946.09
2023-05-09T21:03:36.673Z,97936.84
2023-05-09T21:08:40.540Z,97936.03
2023-05-09T21:13:42.468Z,97928.19
2023-05-09T21:18:47.174Z,97912.72
2023-05-09T21:23:49.060Z,97913.94
2023-05-09T21:28:51.380Z,97909.91
2023-05-09T21:33:53.269Z,97904.88
2023-05-09T21:38:55.134Z,97895.03
2023-05-09T21:43:56.940Z,97898.22
2023-05-09T21:48:59.456Z,97897.81
2023-05-09T21:54:01.400Z,97901.25
2023-05-09T21:59:03.556Z,97890.19
2023-05-09T22:04:07.423Z,97882.94
2023-05-09T22:09:10.472Z,97886.56
2023-05-09T22:14:12.593Z,97889.59
2023-05-09T22:19:15.635Z,97876.91
2023-05-09T22:24:17.584Z,97876.72
2023-05-09T22:29:24.598Z,97869.28
2023-05-09T22:34:26.587Z,97873.69
2023-05-09T22:39:31.337Z,97864.44
2023-05-09T22:44:33.249Z,97862.84
2023-05-09T22:49:35.689Z,97854.19
2023-05-09T22:54:37.613Z,97854.78
2023-05-09T22:59:39.568Z,97854.38
2023-05-09T23:04:41.572Z,97839.50
2023-05-09T23:09:43.533Z,97830.63
2023-05-09T23:14:46.259Z,97835.63
2023-05-09T23:19:48.115Z,97830.97
2023-05-09T23:24:50.188Z,97825.16
2023-05-09T23:29:52.253Z,97826.56
2023-05-09T23:34:55.210Z,97823.72
2023-05-09T23:39:57.100Z,97813.69
2023-05-09T23:44:59.887Z,97810.25
2023-05-09T23:50:01.878Z,97805.44
2023-05-09T23:55:04.045Z,97800.81
